• Join FlightAware (Why Join?)
  • Login
  • US Flag 
06:21AM EST


 

Airport Tracker/Info


-or-


 

Live Flight TrackerFlight Track Log ✈ N555CT ✈ 03-Aug-2014 ✈ KFLL - KPIE

Flight Track Log - Related Links

Times and Time Zones

All times are in EDT time to prevent confusion due to time zone crossing. See the N555CT flight status page for this flight to view local times or setup timezone preferences in your user account.

Time Position Orientation Groundspeed Altitude Reporting Facility
EDT Latitude Longitude Course Direction KTS MPH feet Rate Location/Type
04:12PM 26.0939 -80.1811 312° West 109 125 900  Level Miami Center
04:13PM 26.1111 -80.2081 305° West 115 132 1,400 420 Climbing Miami Center
04:14PM 26.1150 -80.2106 330° Northwest 109 125 1,500 360 Climbing Miami Center
04:14PM 26.1297 -80.2419 298° West 137 158 1,800 360 Climbing Miami Center
04:15PM 26.1317 -80.2550 279° West 138 159 1,900 60 Climbing Miami Center
04:15PM 26.1314 -80.2839 269° West 141 162 1,900  Level Miami Center
04:16PM 26.1322 -80.2981 274° West 141 162 1,900  Level Miami Center
04:17PM 26.1328 -80.3303 271° West 144 166 1,900  Level Miami Center
04:17PM 26.1328 -80.3425 270° West 141 162 1,900  Level Miami Center
04:17PM 26.1322 -80.3719 269° West 146 168 1,900  Level Miami Center
04:18PM 26.1994 -80.3367 312° West  Level FlightAware Approximate
04:18PM 26.1347 -80.3872 280° West 142 163 1,900  Level Miami Center
04:18PM 26.1397 -80.4144 282° West 146 168 1,900  Level Miami Center
04:19PM 26.1442 -80.4303 287° West 144 166 1,900 60 Level Miami Center
04:19PM 26.1472 -80.4614 276° West 147 169 2,000 60 Climbing Miami Center
04:20PM 26.1511 -80.4750 288° West 145 167 2,000  Level Miami Center
04:20PM 26.1569 -80.5064 282° West 148 170 2,000  Level Miami Center
04:21PM 26.1631 -80.5283 287° West 146 168 2,000  Level Miami Center
04:22PM 26.1744 -80.5722 286° West 147 169 2,000  Level Miami Center
04:23PM 26.1836 -80.6172 283° West 147 169 2,000  Level Miami Center
04:24PM 26.1944 -80.6608 285° West 147 169 2,000  Level Miami Center
04:25PM 26.1994 -80.7053 277° West 147 169 2,000 240 Level Miami Center
04:26PM 26.2031 -80.7564 275° West 140 161 2,600 300 Climbing Miami Center
04:27PM 26.2036 -80.7975 271° West 135 155 2,700 -60 Climbing Miami Center
04:28PM 26.2042 -80.8447 271° West 150 173 2,500 -120 Descending Miami Center
04:29PM 26.2042 -80.8886 270° West 147 169 2,500  Level Miami Center
04:30PM 26.2044 -80.9344 270° West 147 169 2,500  Level Miami Center
04:31PM 26.2047 -80.9889 270° West 147 169 2,500  Level Miami Center
04:32PM 26.2108 -81.0364 278° West 147 169 2,500  Level Miami Center
04:33PM 26.2192 -81.0797 282° West 146 168 2,500  Level Miami Center
04:35PM 26.2314 -81.1247 287° West 144 166 2,500  Level Miami Center
04:36PM 26.2433 -81.1633 289° West 144 166 2,600  Climbing Miami Center
04:37PM 26.2594 -81.2103 291° West 144 166 2,600  Level Miami Center
04:38PM 26.2711 -81.2508 288° West 143 165 2,600  Level Miami Center
04:40PM 26.2917 -81.3350 285° West 139 160 2,600  Level Miami Center
04:41PM 26.3011 -81.3797 283° West 139 160 2,600  Level Miami Center
04:42PM 26.3117 -81.4247 285° West 139 160 2,600  Level Miami Center
04:43PM 26.3217 -81.4661 285° West 139 160 2,600  Level Miami Center
04:44PM 26.3331 -81.5108 286° West 139 160 2,600  Level Miami Center
04:45PM 26.3414 -81.5522 283° West 139 160 2,600  Level Miami Center
04:46PM 26.3489 -81.5969 281° West 139 160 2,600  Level Miami Center
04:47PM 26.3561 -81.6381 281° West 139 160 2,600  Level Miami Center
04:48PM 26.3633 -81.6833 280° West 139 160 2,600  Level Miami Center
04:49PM 26.3675 -81.7253 276° West 138 159 2,600  Level Miami Center
04:50PM 26.3686 -81.7697 272° West 138 159 2,600  Level Miami Center
04:51PM 26.3667 -81.8114 267° West 137 158 2,600  Level Miami Center
04:52PM 26.3644 -81.8581 267° West 137 158 2,600  Level Miami Center
04:53PM 26.3619 -81.9008 266° West 138 159 2,600  Level Miami Center
04:54PM 26.3861 -81.9383 306° West 142 163 2,600  Level Miami Center
04:55PM 26.4164 -81.9661 321° Northwest 142 163 2,600  Level Miami Center
04:56PM 26.4511 -81.9928 325° Northwest 142 163 2,600 -120 Level Miami Center
04:57PM 26.4842 -82.0194 324° Northwest 147 169 2,400 -60 Descending Miami Center
04:58PM 26.5194 -82.0467 325° Northwest 139 160 2,500  Climbing Miami Center
04:59PM 26.5500 -82.0711 324° Northwest 137 158 2,500  Level Miami Center
05:00PM 26.5858 -82.0964 328° Northwest 140 161 2,500  Level Miami Center
05:01PM 26.6200 -82.1192 329° Northwest 141 162 2,500  Level Miami Center
05:02PM 26.6561 -82.1439 329° Northwest 141 162 2,500  Level Miami Center
05:05PM 26.7211 -82.1953 325° Northwest 140 161 2,600  Climbing Miami Center
05:06PM 26.7536 -82.2189 327° Northwest 140 161 2,600  Level Miami Center
05:07PM 26.7936 -82.2414 333° Northwest 149 171 2,600  Level Miami Center
05:08PM 26.8325 -82.2594 337° Northwest 151 174 2,600  Level Miami Center
05:09PM 26.8778 -82.2758 342° North 159 183 2,700  Climbing Miami Center
05:10PM 26.9194 -82.2839 350° North 155 178 2,700 -60 Level Miami Center
05:11PM 26.9608 -82.3000 341° North 151 174 2,600 -60 Descending Miami Center
05:12PM 26.9986 -82.3158 340° North 150 173 2,600  Level Miami Center
05:13PM 27.0367 -82.3322 339° North 149 171 2,600  Level Miami Center
05:14PM 27.0731 -82.3461 341° North 146 168 2,600  Level Miami Center
05:15PM 27.1089 -82.3606 340° North 142 163 2,600  Level Miami Center
05:16PM 27.1447 -82.3747 341° North 140 161 2,600  Level Miami Center
05:17PM 27.1806 -82.3889 341° North 140 161 2,600  Level Miami Center
05:18PM 27.2233 -82.4061 340° North 138 159 2,600  Level Miami Center
05:19PM 27.2594 -82.4203 341° North 138 159 2,600  Level Miami Center
05:20PM 27.2947 -82.4356 339° North 137 158 2,600  Level Miami Center
05:21PM 27.3314 -82.4511 339° North 138 159 2,600  Level Miami Center
05:22PM 27.3833 -82.4667 345° North 142 163 2,600  Level Tampa TRACON
05:23PM 27.4167 -82.4833 336° Northwest 142 163 2,600  Level Tampa TRACON
05:24PM 27.4500 -82.5000 336° Northwest 141 162 2,600  Level Tampa TRACON
05:25PM 27.4833 -82.5167 336° Northwest 141 162 2,600  Level Tampa TRACON
05:26PM 27.5167 -82.5500 318° Northwest 143 165 2,600  Level Tampa TRACON
05:27PM 27.5500 -82.5833 318° Northwest 141 162 2,600  Level Tampa TRACON
05:28PM 27.5833 -82.6167 318° Northwest 144 166 2,600  Level Tampa TRACON
05:29PM 27.6000 -82.6333 318° Northwest 144 166 2,600  Level Tampa TRACON
05:30PM 27.6333 -82.6667 318° Northwest 144 166 2,600  Level Tampa TRACON
05:31PM 27.6667 -82.7000 318° Northwest 137 158 2,600 -180 Level Tampa TRACON
05:32PM 27.7167 -82.6833 16° North 148 170 2,300 -420 Descending Tampa TRACON
05:33PM 27.7500 -82.6833 360° North 151 174 1,900 -300 Descending Tampa TRACON
05:34PM 27.7833 -82.6833 360° North 133 153 1,800 -180 Descending Tampa TRACON
05:35PM 27.8167 -82.6833 360° North 136 157 1,600 -360 Descending Tampa TRACON
05:36PM 27.8667 -82.6833 360° North 134 154 1,100 -600 Descending Tampa TRACON
05:37PM 27.9000 -82.7000 336° Northwest 99 114 400 -720 Descending Tampa TRACON
05:39PM 27.9100 -82.6875 48° Northeast  Level Estimated
05:46PM 27.9100 -82.6875 North  Level Estimated
05:47PM 27.9100 -82.6875 North  Level Estimated